sensor_id;sensor_type;location;lat;lon;timestamp;P1;durP1;ratioP1;P2;durP2;ratioP2
70008;SDS011;59542;37.950;-122.338;2022-08-01T00:00:46;3.55;;;0.80;;
70008;SDS011;59542;37.950;-122.338;2022-08-01T00:03:13;8.25;;;1.20;;
70008;SDS011;59542;37.950;-122.338;2022-08-01T00:05:39;2.83;;;0.70;;
70008;SDS011;59542;37.950;-122.338;2022-08-01T00:08:07;1.88;;;0.70;;
70008;SDS011;59542;37.950;-122.338;2022-08-01T00:10:33;3.22;;;0.70;;
70008;SDS011;59542;37.950;-122.338;2022-08-01T00:12:59;3.33;;;1.25;;
70008;SDS011;59542;37.950;-122.338;2022-08-01T00:15:25;4.15;;;0.77;;
70008;SDS011;59542;37.950;-122.338;2022-08-01T00:17:51;2.90;;;0.90;;
70008;SDS011;59542;37.950;-122.338;2022-08-01T00:20:18;2.10;;;0.70;;
70008;SDS011;59542;37.950;-122.338;2022-08-01T00:22:44;0.95;;;0.60;;
70008;SDS011;59542;37.950;-122.338;2022-08-01T00:25:10;3.80;;;0.70;;
70008;SDS011;59542;37.950;-122.338;2022-08-01T00:27:36;2.47;;;0.60;;
70008;SDS011;59542;37.950;-122.338;2022-08-01T00:30:02;1.90;;;0.57;;
70008;SDS011;59542;37.950;-122.338;2022-08-01T00:32:30;5.15;;;1.05;;
70008;SDS011;59542;37.950;-122.338;2022-08-01T00:34:57;0.50;;;0.40;;
70008;SDS011;59542;37.950;-122.338;2022-08-01T00:37:23;1.75;;;0.80;;
70008;SDS011;59542;37.950;-122.338;2022-08-01T00:39:49;3.55;;;1.00;;
70008;SDS011;59542;37.950;-122.338;2022-08-01T00:42:16;2.00;;;1.08;;
70008;SDS011;59542;37.950;-122.338;2022-08-01T00:44:42;2.80;;;1.38;;
70008;SDS011;59542;37.950;-122.338;2022-08-01T00:47:08;2.90;;;0.90;;
70008;SDS011;59542;37.950;-122.338;2022-08-01T00:49:35;1.88;;;0.95;;
70008;SDS011;59542;37.950;-122.338;2022-08-01T00:52:02;2.88;;;0.90;;
70008;SDS011;59542;37.950;-122.338;2022-08-01T00:54:30;2.70;;;1.10;;
70008;SDS011;59542;37.950;-122.338;2022-08-01T00:56:57;5.07;;;1.95;;
70008;SDS011;59542;37.950;-122.338;2022-08-01T00:59:24;2.63;;;1.10;;
70008;SDS011;59542;37.950;-122.338;2022-08-01T01:01:51;2.17;;;0.95;;
70008;SDS011;59542;37.950;-122.338;2022-08-01T01:04:17;1.20;;;1.05;;
70008;SDS011;59542;37.950;-122.338;2022-08-01T01:13:27;2.03;;;1.10;;
70008;SDS011;59542;37.950;-122.338;2022-08-01T01:15:56;3.78;;;1.42;;
70008;SDS011;59542;37.950;-122.338;2022-08-01T01:18:30;2.50;;;1.52;;
70008;SDS011;59542;37.950;-122.338;2022-08-01T01:27:17;2.87;;;1.23;;
70008;SDS011;59542;37.950;-122.338;2022-08-01T01:34:59;3.08;;;1.13;;
70008;SDS011;59542;37.950;-122.338;2022-08-01T01:37:31;2.45;;;1.40;;
70008;SDS011;59542;37.950;-122.338;2022-08-01T01:39:59;2.72;;;1.27;;
70008;SDS011;59542;37.950;-122.338;2022-08-01T01:42:29;2.85;;;1.13;;
70008;SDS011;59542;37.950;-122.338;2022-08-01T01:44:57;1.75;;;1.20;;
70008;SDS011;59542;37.950;-122.338;2022-08-01T01:47:25;2.47;;;1.30;;
70008;SDS011;59542;37.950;-122.338;2022-08-01T01:49:53;4.13;;;1.50;;
70008;SDS011;59542;37.950;-122.338;2022-08-01T01:52:23;5.97;;;1.52;;
70008;SDS011;59542;37.950;-122.338;2022-08-01T01:54:50;2.45;;;1.10;;
70008;SDS011;59542;37.950;-122.338;2022-08-01T01:57:18;2.78;;;1.70;;
70008;SDS011;59542;37.950;-122.338;2022-08-01T01:59:45;6.40;;;1.95;;
70008;SDS011;59542;37.950;-122.338;2022-08-01T02:02:13;3.90;;;1.90;;
70008;SDS011;59542;37.950;-122.338;2022-08-01T02:04:42;5.35;;;1.60;;
70008;SDS011;59542;37.950;-122.338;2022-08-01T02:07:11;4.78;;;2.30;;
70008;SDS011;59542;37.950;-122.338;2022-08-01T02:09:40;4.43;;;2.20;;
70008;SDS011;59542;37.950;-122.338;2022-08-01T02:12:10;2.42;;;1.77;;
70008;SDS011;59542;37.950;-122.338;2022-08-01T02:14:37;3.00;;;1.77;;
70008;SDS011;59542;37.950;-122.338;2022-08-01T02:17:05;3.53;;;1.65;;
70008;SDS011;59542;37.950;-122.338;2022-08-01T02:19:34;3.53;;;1.70;;
70008;SDS011;59542;37.950;-122.338;2022-08-01T02:22:01;3.13;;;1.50;;
70008;SDS011;59542;37.950;-122.338;2022-08-01T02:25:00;1.95;;;1.30;;
70008;SDS011;59542;37.950;-122.338;2022-08-01T02:27:50;3.85;;;1.95;;
70008;SDS011;59542;37.950;-122.338;2022-08-01T02:30:33;2.80;;;1.70;;
70008;SDS011;59542;37.950;-122.338;2022-08-01T02:33:03;2.38;;;1.80;;
70008;SDS011;59542;37.950;-122.338;2022-08-01T02:35:33;4.32;;;1.77;;
70008;SDS011;59542;37.950;-122.338;2022-08-01T02:38:03;5.10;;;2.03;;
70008;SDS011;59542;37.950;-122.338;2022-08-01T02:40:32;3.75;;;2.00;;
70008;SDS011;59542;37.950;-122.338;2022-08-01T02:43:03;2.88;;;2.20;;
70008;SDS011;59542;37.950;-122.338;2022-08-01T02:45:33;3.08;;;1.95;;
70008;SDS011;59542;37.950;-122.338;2022-08-01T02:48:10;4.85;;;2.08;;
70008;SDS011;59542;37.950;-122.338;2022-08-01T02:50:39;4.65;;;2.33;;
70008;SDS011;59542;37.950;-122.338;2022-08-01T02:53:11;3.38;;;2.05;;
70008;SDS011;59542;37.950;-122.338;2022-08-01T02:55:39;4.70;;;2.15;;
70008;SDS011;59542;37.950;-122.338;2022-08-01T02:58:08;6.35;;;2.42;;
70008;SDS011;59542;37.950;-122.338;2022-08-01T03:00:37;4.72;;;2.53;;
70008;SDS011;59542;37.950;-122.338;2022-08-01T03:03:06;3.80;;;2.50;;
70008;SDS011;59542;37.950;-122.338;2022-08-01T03:05:33;4.28;;;2.70;;
70008;SDS011;59542;37.950;-122.338;2022-08-01T03:08:01;5.57;;;2.60;;
70008;SDS011;59542;37.950;-122.338;2022-08-01T03:10:29;10.02;;;2.80;;
70008;SDS011;59542;37.950;-122.338;2022-08-01T03:12:58;4.47;;;2.58;;
70008;SDS011;59542;37.950;-122.338;2022-08-01T03:15:27;5.05;;;2.80;;
70008;SDS011;59542;37.950;-122.338;2022-08-01T03:17:57;3.90;;;2.55;;
70008;SDS011;59542;37.950;-122.338;2022-08-01T03:20:27;7.43;;;3.35;;
70008;SDS011;59542;37.950;-122.338;2022-08-01T03:22:55;4.88;;;3.00;;
70008;SDS011;59542;37.950;-122.338;2022-08-01T03:25:23;5.78;;;3.03;;
70008;SDS011;59542;37.950;-122.338;2022-08-01T03:27:55;5.35;;;2.95;;
70008;SDS011;59542;37.950;-122.338;2022-08-01T03:30:23;5.50;;;2.85;;
70008;SDS011;59542;37.950;-122.338;2022-08-01T03:32:51;6.47;;;2.72;;
70008;SDS011;59542;37.950;-122.338;2022-08-01T03:35:18;4.03;;;2.60;;
70008;SDS011;59542;37.950;-122.338;2022-08-01T03:37:48;5.60;;;2.63;;
70008;SDS011;59542;37.950;-122.338;2022-08-01T03:40:22;7.57;;;2.72;;
70008;SDS011;59542;37.950;-122.338;2022-08-01T03:42:54;3.30;;;2.30;;
70008;SDS011;59542;37.950;-122.338;2022-08-01T03:45:30;4.38;;;2.20;;
70008;SDS011;59542;37.950;-122.338;2022-08-01T03:48:05;4.95;;;2.45;;
70008;SDS011;59542;37.950;-122.338;2022-08-01T03:50:34;5.47;;;3.08;;
70008;SDS011;59542;37.950;-122.338;2022-08-01T03:53:04;6.05;;;3.00;;
70008;SDS011;59542;37.950;-122.338;2022-08-01T03:55:35;4.95;;;2.95;;
70008;SDS011;59542;37.950;-122.338;2022-08-01T03:58:03;4.95;;;3.00;;
70008;SDS011;59542;37.950;-122.338;2022-08-01T04:00:31;5.65;;;2.92;;
70008;SDS011;59542;37.950;-122.338;2022-08-01T04:02:58;5.38;;;2.47;;
70008;SDS011;59542;37.950;-122.338;2022-08-01T04:05:24;4.03;;;2.60;;
70008;SDS011;59542;37.950;-122.338;2022-08-01T04:07:51;3.30;;;2.17;;
70008;SDS011;59542;37.950;-122.338;2022-08-01T04:10:21;5.15;;;2.90;;
70008;SDS011;59542;37.950;-122.338;2022-08-01T04:12:48;5.20;;;2.38;;
70008;SDS011;59542;37.950;-122.338;2022-08-01T04:15:14;5.70;;;2.90;;
70008;SDS011;59542;37.950;-122.338;2022-08-01T04:17:41;5.70;;;2.35;;
70008;SDS011;59542;37.950;-122.338;2022-08-01T04:20:07;2.53;;;1.90;;
70008;SDS011;59542;37.950;-122.338;2022-08-01T04:22:34;4.50;;;2.33;;
70008;SDS011;59542;37.950;-122.338;2022-08-01T04:25:01;5.25;;;2.30;;
70008;SDS011;59542;37.950;-122.338;2022-08-01T04:27:36;3.17;;;2.20;;
70008;SDS011;59542;37.950;-122.338;2022-08-01T04:30:04;3.90;;;2.47;;
70008;SDS011;59542;37.950;-122.338;2022-08-01T04:32:33;3.65;;;1.88;;
70008;SDS011;59542;37.950;-122.338;2022-08-01T04:35:04;3.03;;;2.42;;
70008;SDS011;59542;37.950;-122.338;2022-08-01T04:37:33;4.97;;;2.63;;
70008;SDS011;59542;37.950;-122.338;2022-08-01T04:40:04;2.72;;;2.10;;
70008;SDS011;59542;37.950;-122.338;2022-08-01T04:42:33;4.07;;;2.40;;
70008;SDS011;59542;37.950;-122.338;2022-08-01T04:44:59;4.90;;;2.00;;
70008;SDS011;59542;37.950;-122.338;2022-08-01T04:47:26;4.20;;;2.30;;
70008;SDS011;59542;37.950;-122.338;2022-08-01T04:49:53;9.65;;;3.28;;
70008;SDS011;59542;37.950;-122.338;2022-08-01T04:52:21;5.55;;;2.88;;
70008;SDS011;59542;37.950;-122.338;2022-08-01T04:54:48;3.90;;;2.40;;
70008;SDS011;59542;37.950;-122.338;2022-08-01T04:57:14;5.63;;;2.60;;
70008;SDS011;59542;37.950;-122.338;2022-08-01T04:59:42;2.95;;;2.40;;
70008;SDS011;59542;37.950;-122.338;2022-08-01T05:02:18;4.10;;;2.72;;
70008;SDS011;59542;37.950;-122.338;2022-08-01T05:04:45;5.20;;;2.25;;
70008;SDS011;59542;37.950;-122.338;2022-08-01T05:07:12;3.42;;;2.67;;
70008;SDS011;59542;37.950;-122.338;2022-08-01T05:09:39;2.85;;;2.13;;
70008;SDS011;59542;37.950;-122.338;2022-08-01T05:12:11;5.82;;;3.53;;
70008;SDS011;59542;37.950;-122.338;2022-08-01T05:14:37;3.53;;;2.70;;
70008;SDS011;59542;37.950;-122.338;2022-08-01T05:17:06;4.93;;;2.95;;
70008;SDS011;59542;37.950;-122.338;2022-08-01T05:19:33;4.28;;;2.70;;
70008;SDS011;59542;37.950;-122.338;2022-08-01T05:22:01;5.22;;;3.20;;
70008;SDS011;59542;37.950;-122.338;2022-08-01T05:24:30;6.30;;;3.58;;
70008;SDS011;59542;37.950;-122.338;2022-08-01T05:26:58;11.13;;;3.55;;
70008;SDS011;59542;37.950;-122.338;2022-08-01T05:29:24;6.32;;;3.90;;
70008;SDS011;59542;37.950;-122.338;2022-08-01T05:31:52;4.35;;;3.38;;
70008;SDS011;59542;37.950;-122.338;2022-08-01T05:34:19;6.90;;;3.88;;
70008;SDS011;59542;37.950;-122.338;2022-08-01T05:36:46;4.13;;;3.10;;
70008;SDS011;59542;37.950;-122.338;2022-08-01T05:39:13;9.00;;;4.00;;
70008;SDS011;59542;37.950;-122.338;2022-08-01T05:41:40;6.15;;;3.47;;
70008;SDS011;59542;37.950;-122.338;2022-08-01T05:44:07;7.32;;;3.63;;
70008;SDS011;59542;37.950;-122.338;2022-08-01T05:46:34;5.72;;;4.20;;
70008;SDS011;59542;37.950;-122.338;2022-08-01T05:49:02;7.20;;;4.38;;
70008;SDS011;59542;37.950;-122.338;2022-08-01T05:51:29;9.57;;;4.63;;
70008;SDS011;59542;37.950;-122.338;2022-08-01T05:53:56;5.65;;;3.97;;
70008;SDS011;59542;37.950;-122.338;2022-08-01T05:56:22;8.88;;;4.40;;
70008;SDS011;59542;37.950;-122.338;2022-08-01T05:58:49;8.32;;;3.70;;
70008;SDS011;59542;37.950;-122.338;2022-08-01T06:01:16;6.32;;;4.25;;
70008;SDS011;59542;37.950;-122.338;2022-08-01T06:03:43;8.77;;;4.45;;
70008;SDS011;59542;37.950;-122.338;2022-08-01T06:06:10;5.40;;;4.45;;
70008;SDS011;59542;37.950;-122.338;2022-08-01T06:08:36;9.88;;;4.53;;
70008;SDS011;59542;37.950;-122.338;2022-08-01T06:11:02;6.93;;;4.13;;
70008;SDS011;59542;37.950;-122.338;2022-08-01T06:13:29;6.43;;;4.00;;
70008;SDS011;59542;37.950;-122.338;2022-08-01T06:15:55;7.35;;;4.68;;
70008;SDS011;59542;37.950;-122.338;2022-08-01T06:18:21;7.72;;;4.35;;
70008;SDS011;59542;37.950;-122.338;2022-08-01T06:20:47;8.88;;;4.13;;
70008;SDS011;59542;37.950;-122.338;2022-08-01T06:23:14;4.70;;;4.00;;
70008;SDS011;59542;37.950;-122.338;2022-08-01T06:25:42;10.10;;;4.65;;
70008;SDS011;59542;37.950;-122.338;2022-08-01T06:28:08;9.68;;;4.60;;
70008;SDS011;59542;37.950;-122.338;2022-08-01T06:30:35;6.80;;;4.38;;
70008;SDS011;59542;37.950;-122.338;2022-08-01T06:33:01;7.50;;;4.32;;
70008;SDS011;59542;37.950;-122.338;2022-08-01T06:35:28;7.20;;;4.10;;
70008;SDS011;59542;37.950;-122.338;2022-08-01T06:37:55;6.75;;;4.45;;
70008;SDS011;59542;37.950;-122.338;2022-08-01T06:40:22;6.43;;;4.32;;
70008;SDS011;59542;37.950;-122.338;2022-08-01T06:42:48;9.98;;;4.18;;
70008;SDS011;59542;37.950;-122.338;2022-08-01T06:45:15;8.73;;;4.53;;
70008;SDS011;59542;37.950;-122.338;2022-08-01T06:47:42;6.95;;;4.35;;
70008;SDS011;59542;37.950;-122.338;2022-08-01T06:50:10;7.80;;;4.53;;
70008;SDS011;59542;37.950;-122.338;2022-08-01T06:52:36;6.82;;;4.80;;
70008;SDS011;59542;37.950;-122.338;2022-08-01T06:55:03;8.00;;;4.57;;
70008;SDS011;59542;37.950;-122.338;2022-08-01T06:57:29;6.70;;;4.20;;
70008;SDS011;59542;37.950;-122.338;2022-08-01T06:59:56;6.75;;;3.97;;
70008;SDS011;59542;37.950;-122.338;2022-08-01T07:02:22;5.30;;;4.30;;
70008;SDS011;59542;37.950;-122.338;2022-08-01T07:04:49;6.50;;;3.95;;
70008;SDS011;59542;37.950;-122.338;2022-08-01T07:07:15;7.20;;;4.03;;
70008;SDS011;59542;37.950;-122.338;2022-08-01T07:09:41;9.85;;;4.10;;
70008;SDS011;59542;37.950;-122.338;2022-08-01T07:12:07;6.75;;;4.45;;
70008;SDS011;59542;37.950;-122.338;2022-08-01T07:14:34;4.68;;;3.60;;
70008;SDS011;59542;37.950;-122.338;2022-08-01T07:17:00;5.70;;;3.88;;
70008;SDS011;59542;37.950;-122.338;2022-08-01T07:19:27;6.80;;;4.35;;
70008;SDS011;59542;37.950;-122.338;2022-08-01T07:21:53;5.00;;;3.40;;
70008;SDS011;59542;37.950;-122.338;2022-08-01T07:24:19;5.65;;;3.92;;
70008;SDS011;59542;37.950;-122.338;2022-08-01T07:26:46;5.75;;;3.95;;
70008;SDS011;59542;37.950;-122.338;2022-08-01T07:29:14;8.70;;;4.60;;
70008;SDS011;59542;37.950;-122.338;2022-08-01T07:31:40;5.88;;;4.25;;
70008;SDS011;59542;37.950;-122.338;2022-08-01T07:34:07;5.72;;;4.30;;
70008;SDS011;59542;37.950;-122.338;2022-08-01T07:36:33;7.47;;;5.22;;
70008;SDS011;59542;37.950;-122.338;2022-08-01T07:38:59;7.18;;;5.03;;
70008;SDS011;59542;37.950;-122.338;2022-08-01T07:41:25;7.25;;;4.50;;
70008;SDS011;59542;37.950;-122.338;2022-08-01T07:43:51;7.15;;;4.32;;
70008;SDS011;59542;37.950;-122.338;2022-08-01T07:46:18;8.60;;;5.07;;
70008;SDS011;59542;37.950;-122.338;2022-08-01T07:48:44;6.80;;;4.80;;
70008;SDS011;59542;37.950;-122.338;2022-08-01T07:51:10;13.18;;;5.53;;
70008;SDS011;59542;37.950;-122.338;2022-08-01T07:53:37;7.85;;;4.60;;
70008;SDS011;59542;37.950;-122.338;2022-08-01T07:56:04;6.05;;;4.47;;
70008;SDS011;59542;37.950;-122.338;2022-08-01T07:58:31;6.97;;;4.93;;
70008;SDS011;59542;37.950;-122.338;2022-08-01T08:00:58;6.88;;;5.25;;
70008;SDS011;59542;37.950;-122.338;2022-08-01T08:03:24;6.60;;;4.82;;
70008;SDS011;59542;37.950;-122.338;2022-08-01T08:05:51;7.32;;;4.82;;
70008;SDS011;59542;37.950;-122.338;2022-08-01T08:08:18;6.68;;;4.57;;
70008;SDS011;59542;37.950;-122.338;2022-08-01T08:10:44;6.60;;;4.50;;
70008;SDS011;59542;37.950;-122.338;2022-08-01T08:13:10;7.47;;;4.30;;
70008;SDS011;59542;37.950;-122.338;2022-08-01T08:15:37;8.23;;;4.45;;
70008;SDS011;59542;37.950;-122.338;2022-08-01T08:18:03;6.25;;;4.18;;
70008;SDS011;59542;37.950;-122.338;2022-08-01T08:20:30;6.65;;;4.07;;
70008;SDS011;59542;37.950;-122.338;2022-08-01T08:22:56;6.53;;;4.28;;
70008;SDS011;59542;37.950;-122.338;2022-08-01T08:25:25;5.82;;;4.22;;
70008;SDS011;59542;37.950;-122.338;2022-08-01T08:27:54;7.53;;;3.67;;
70008;SDS011;59542;37.950;-122.338;2022-08-01T08:30:20;5.35;;;3.60;;
70008;SDS011;59542;37.950;-122.338;2022-08-01T08:32:46;7.95;;;4.10;;
70008;SDS011;59542;37.950;-122.338;2022-08-01T08:35:13;5.30;;;3.38;;
70008;SDS011;59542;37.950;-122.338;2022-08-01T08:37:40;5.50;;;3.75;;
70008;SDS011;59542;37.950;-122.338;2022-08-01T08:40:06;9.95;;;3.60;;
70008;SDS011;59542;37.950;-122.338;2022-08-01T08:42:33;6.00;;;3.58;;
70008;SDS011;59542;37.950;-122.338;2022-08-01T08:45:00;6.97;;;3.85;;
70008;SDS011;59542;37.950;-122.338;2022-08-01T08:47:26;4.53;;;3.45;;
70008;SDS011;59542;37.950;-122.338;2022-08-01T08:49:56;6.20;;;3.33;;
70008;SDS011;59542;37.950;-122.338;2022-08-01T08:52:24;5.88;;;3.60;;
70008;SDS011;59542;37.950;-122.338;2022-08-01T08:54:51;8.90;;;3.42;;
70008;SDS011;59542;37.950;-122.338;2022-08-01T08:57:19;6.18;;;3.60;;
70008;SDS011;59542;37.950;-122.338;2022-08-01T08:59:46;5.10;;;3.50;;
70008;SDS011;59542;37.950;-122.338;2022-08-01T09:02:13;4.47;;;3.03;;
70008;SDS011;59542;37.950;-122.338;2022-08-01T09:04:39;5.32;;;3.30;;
70008;SDS011;59542;37.950;-122.338;2022-08-01T09:07:06;5.15;;;3.38;;
70008;SDS011;59542;37.950;-122.338;2022-08-01T09:09:33;7.40;;;3.25;;
70008;SDS011;59542;37.950;-122.338;2022-08-01T09:12:00;4.30;;;3.33;;
70008;SDS011;59542;37.950;-122.338;2022-08-01T09:14:26;6.03;;;3.38;;
70008;SDS011;59542;37.950;-122.338;2022-08-01T09:17:38;6.88;;;3.63;;
70008;SDS011;59542;37.950;-122.338;2022-08-01T09:19:49;4.93;;;3.30;;
70008;SDS011;59542;37.950;-122.338;2022-08-01T09:22:18;6.28;;;3.20;;
70008;SDS011;59542;37.950;-122.338;2022-08-01T09:25:08;5.20;;;3.70;;
70008;SDS011;59542;37.950;-122.338;2022-08-01T09:27:36;6.63;;;3.40;;
70008;SDS011;59542;37.950;-122.338;2022-08-01T09:30:25;10.60;;;3.25;;
70008;SDS011;59542;37.950;-122.338;2022-08-01T09:33:08;5.63;;;3.33;;
70008;SDS011;59542;37.950;-122.338;2022-08-01T09:35:35;4.65;;;2.95;;
70008;SDS011;59542;37.950;-122.338;2022-08-01T09:38:19;4.80;;;3.15;;
70008;SDS011;59542;37.950;-122.338;2022-08-01T09:40:56;5.90;;;3.38;;
70008;SDS011;59542;37.950;-122.338;2022-08-01T09:43:24;5.68;;;3.63;;
70008;SDS011;59542;37.950;-122.338;2022-08-01T09:45:52;4.95;;;3.28;;
70008;SDS011;59542;37.950;-122.338;2022-08-01T09:48:19;6.03;;;3.45;;
70008;SDS011;59542;37.950;-122.338;2022-08-01T09:50:47;3.80;;;3.10;;
70008;SDS011;59542;37.950;-122.338;2022-08-01T09:53:15;5.28;;;3.20;;
70008;SDS011;59542;37.950;-122.338;2022-08-01T09:55:41;3.78;;;2.97;;
70008;SDS011;59542;37.950;-122.338;2022-08-01T09:58:09;5.93;;;3.25;;
70008;SDS011;59542;37.950;-122.338;2022-08-01T10:00:37;4.50;;;2.95;;
70008;SDS011;59542;37.950;-122.338;2022-08-01T10:03:23;4.70;;;3.08;;
70008;SDS011;59542;37.950;-122.338;2022-08-01T10:05:51;7.43;;;3.10;;
70008;SDS011;59542;37.950;-122.338;2022-08-01T10:08:22;4.43;;;3.20;;
70008;SDS011;59542;37.950;-122.338;2022-08-01T10:11:09;4.45;;;3.13;;
70008;SDS011;59542;37.950;-122.338;2022-08-01T10:13:37;4.20;;;3.00;;
70008;SDS011;59542;37.950;-122.338;2022-08-01T10:16:04;5.53;;;3.28;;
70008;SDS011;59542;37.950;-122.338;2022-08-01T10:18:31;3.88;;;3.17;;
70008;SDS011;59542;37.950;-122.338;2022-08-01T10:21:02;5.57;;;3.42;;
70008;SDS011;59542;37.950;-122.338;2022-08-01T10:23:36;5.97;;;3.08;;
70008;SDS011;59542;37.950;-122.338;2022-08-01T10:26:04;5.00;;;3.72;;
70008;SDS011;59542;37.950;-122.338;2022-08-01T10:28:32;4.25;;;3.33;;
70008;SDS011;59542;37.950;-122.338;2022-08-01T10:31:02;4.85;;;2.97;;
70008;SDS011;59542;37.950;-122.338;2022-08-01T10:33:29;8.13;;;3.47;;
70008;SDS011;59542;37.950;-122.338;2022-08-01T10:35:55;4.90;;;2.80;;
70008;SDS011;59542;37.950;-122.338;2022-08-01T10:38:23;4.55;;;3.40;;
70008;SDS011;59542;37.950;-122.338;2022-08-01T10:40:49;4.50;;;3.33;;
70008;SDS011;59542;37.950;-122.338;2022-08-01T10:43:18;6.78;;;3.08;;
70008;SDS011;59542;37.950;-122.338;2022-08-01T10:45:44;4.55;;;3.40;;
70008;SDS011;59542;37.950;-122.338;2022-08-01T10:48:20;3.65;;;2.92;;
70008;SDS011;59542;37.950;-122.338;2022-08-01T10:50:52;3.50;;;3.08;;
70008;SDS011;59542;37.950;-122.338;2022-08-01T10:53:23;6.55;;;3.28;;
70008;SDS011;59542;37.950;-122.338;2022-08-01T10:58:32;6.00;;;3.30;;
70008;SDS011;59542;37.950;-122.338;2022-08-01T11:06:26;5.03;;;3.50;;
70008;SDS011;59542;37.950;-122.338;2022-08-01T11:14:29;4.72;;;2.92;;
70008;SDS011;59542;37.950;-122.338;2022-08-01T11:16:56;3.65;;;2.55;;
70008;SDS011;59542;37.950;-122.338;2022-08-01T11:22:30;9.10;;;3.08;;
70008;SDS011;59542;37.950;-122.338;2022-08-01T11:24:57;5.95;;;2.70;;
70008;SDS011;59542;37.950;-122.338;2022-08-01T11:27:24;3.33;;;2.30;;
70008;SDS011;59542;37.950;-122.338;2022-08-01T11:32:46;4.20;;;2.35;;
70008;SDS011;59542;37.950;-122.338;2022-08-01T11:35:17;4.15;;;2.40;;
70008;SDS011;59542;37.950;-122.338;2022-08-01T11:37:49;3.63;;;2.70;;
70008;SDS011;59542;37.950;-122.338;2022-08-01T11:42:47;3.55;;;2.40;;
70008;SDS011;59542;37.950;-122.338;2022-08-01T11:45:14;4.55;;;2.60;;
70008;SDS011;59542;37.950;-122.338;2022-08-01T11:47:48;3.15;;;2.80;;
70008;SDS011;59542;37.950;-122.338;2022-08-01T11:50:31;3.83;;;2.65;;
70008;SDS011;59542;37.950;-122.338;2022-08-01T11:53:05;3.63;;;2.95;;
70008;SDS011;59542;37.950;-122.338;2022-08-01T11:55:32;3.90;;;3.00;;
70008;SDS011;59542;37.950;-122.338;2022-08-01T11:58:06;4.28;;;2.70;;
70008;SDS011;59542;37.950;-122.338;2022-08-01T12:00:33;3.90;;;2.75;;
70008;SDS011;59542;37.950;-122.338;2022-08-01T12:03:03;3.53;;;2.40;;
70008;SDS011;59542;37.950;-122.338;2022-08-01T12:05:31;3.08;;;2.60;;
70008;SDS011;59542;37.950;-122.338;2022-08-01T12:07:59;4.95;;;2.47;;
70008;SDS011;59542;37.950;-122.338;2022-08-01T12:10:27;3.50;;;2.88;;
70008;SDS011;59542;37.950;-122.338;2022-08-01T12:13:05;3.90;;;2.95;;
70008;SDS011;59542;37.950;-122.338;2022-08-01T12:15:35;3.90;;;2.90;;
70008;SDS011;59542;37.950;-122.338;2022-08-01T12:18:04;3.80;;;2.67;;
70008;SDS011;59542;37.950;-122.338;2022-08-01T12:20:35;4.72;;;2.85;;
70008;SDS011;59542;37.950;-122.338;2022-08-01T12:23:04;3.28;;;2.28;;
70008;SDS011;59542;37.950;-122.338;2022-08-01T12:25:32;3.55;;;2.67;;
70008;SDS011;59542;37.950;-122.338;2022-08-01T12:28:00;3.70;;;2.53;;
70008;SDS011;59542;37.950;-122.338;2022-08-01T12:30:28;2.83;;;2.22;;
70008;SDS011;59542;37.950;-122.338;2022-08-01T12:32:56;4.07;;;2.08;;
70008;SDS011;59542;37.950;-122.338;2022-08-01T12:35:24;3.63;;;2.58;;
70008;SDS011;59542;37.950;-122.338;2022-08-01T12:37:55;2.65;;;2.13;;
70008;SDS011;59542;37.950;-122.338;2022-08-01T12:40:25;4.22;;;2.53;;
70008;SDS011;59542;37.950;-122.338;2022-08-01T12:42:56;3.53;;;2.25;;
70008;SDS011;59542;37.950;-122.338;2022-08-01T12:45:32;3.05;;;2.10;;
70008;SDS011;59542;37.950;-122.338;2022-08-01T12:48:01;3.35;;;2.47;;
70008;SDS011;59542;37.950;-122.338;2022-08-01T12:50:31;4.05;;;2.45;;
70008;SDS011;59542;37.950;-122.338;2022-08-01T12:52:58;2.80;;;1.90;;
70008;SDS011;59542;37.950;-122.338;2022-08-01T12:55:25;2.28;;;1.77;;
70008;SDS011;59542;37.950;-122.338;2022-08-01T12:58:09;2.70;;;2.30;;
70008;SDS011;59542;37.950;-122.338;2022-08-01T13:00:38;2.88;;;1.98;;
70008;SDS011;59542;37.950;-122.338;2022-08-01T13:03:17;2.88;;;2.20;;
70008;SDS011;59542;37.950;-122.338;2022-08-01T13:08:22;4.15;;;2.17;;
70008;SDS011;59542;37.950;-122.338;2022-08-01T13:10:53;3.65;;;2.40;;
70008;SDS011;59542;37.950;-122.338;2022-08-01T13:13:33;3.33;;;2.10;;
70008;SDS011;59542;37.950;-122.338;2022-08-01T13:16:06;3.20;;;2.20;;
70008;SDS011;59542;37.950;-122.338;2022-08-01T13:18:33;4.30;;;2.30;;
70008;SDS011;59542;37.950;-122.338;2022-08-01T13:21:13;4.55;;;2.85;;
70008;SDS011;59542;37.950;-122.338;2022-08-01T13:23:41;2.72;;;2.45;;
70008;SDS011;59542;37.950;-122.338;2022-08-01T13:26:47;4.65;;;2.28;;
70008;SDS011;59542;37.950;-122.338;2022-08-01T13:31:41;3.35;;;2.58;;
70008;SDS011;59542;37.950;-122.338;2022-08-01T13:34:08;3.38;;;2.60;;
70008;SDS011;59542;37.950;-122.338;2022-08-01T13:36:35;3.25;;;2.38;;
70008;SDS011;59542;37.950;-122.338;2022-08-01T13:39:02;4.03;;;2.80;;
70008;SDS011;59542;37.950;-122.338;2022-08-01T13:44:13;4.05;;;2.67;;
70008;SDS011;59542;37.950;-122.338;2022-08-01T13:46:40;4.03;;;2.90;;
70008;SDS011;59542;37.950;-122.338;2022-08-01T13:49:08;4.05;;;2.63;;
70008;SDS011;59542;37.950;-122.338;2022-08-01T13:51:35;2.97;;;2.20;;
70008;SDS011;59542;37.950;-122.338;2022-08-01T13:54:02;3.42;;;2.53;;
70008;SDS011;59542;37.950;-122.338;2022-08-01T13:56:28;3.45;;;2.28;;
70008;SDS011;59542;37.950;-122.338;2022-08-01T13:58:55;4.80;;;2.72;;
70008;SDS011;59542;37.950;-122.338;2022-08-01T14:01:22;3.70;;;2.58;;
70008;SDS011;59542;37.950;-122.338;2022-08-01T14:03:49;3.53;;;2.35;;
70008;SDS011;59542;37.950;-122.338;2022-08-01T14:06:16;3.08;;;2.45;;
70008;SDS011;59542;37.950;-122.338;2022-08-01T14:08:45;2.75;;;2.50;;
70008;SDS011;59542;37.950;-122.338;2022-08-01T14:11:12;3.95;;;2.85;;
70008;SDS011;59542;37.950;-122.338;2022-08-01T14:13:38;4.85;;;2.88;;
70008;SDS011;59542;37.950;-122.338;2022-08-01T14:16:06;3.20;;;2.50;;
70008;SDS011;59542;37.950;-122.338;2022-08-01T14:18:32;4.13;;;3.15;;
70008;SDS011;59542;37.950;-122.338;2022-08-01T14:20:59;4.80;;;2.83;;
70008;SDS011;59542;37.950;-122.338;2022-08-01T14:23:25;5.75;;;3.53;;
70008;SDS011;59542;37.950;-122.338;2022-08-01T14:25:52;3.75;;;3.10;;
70008;SDS011;59542;37.950;-122.338;2022-08-01T14:28:18;3.88;;;2.63;;
70008;SDS011;59542;37.950;-122.338;2022-08-01T14:30:45;4.97;;;2.95;;
70008;SDS011;59542;37.950;-122.338;2022-08-01T14:33:11;3.33;;;2.63;;
70008;SDS011;59542;37.950;-122.338;2022-08-01T14:35:38;4.78;;;3.28;;
70008;SDS011;59542;37.950;-122.338;2022-08-01T14:38:05;4.40;;;2.92;;
70008;SDS011;59542;37.950;-122.338;2022-08-01T14:40:33;5.10;;;3.63;;
70008;SDS011;59542;37.950;-122.338;2022-08-01T14:42:59;9.23;;;3.63;;
70008;SDS011;59542;37.950;-122.338;2022-08-01T14:45:26;4.00;;;3.15;;
70008;SDS011;59542;37.950;-122.338;2022-08-01T14:47:53;10.85;;;4.63;;
70008;SDS011;59542;37.950;-122.338;2022-08-01T14:50:19;6.53;;;3.75;;
70008;SDS011;59542;37.950;-122.338;2022-08-01T14:52:46;10.68;;;4.32;;
70008;SDS011;59542;37.950;-122.338;2022-08-01T14:55:12;6.18;;;4.07;;
70008;SDS011;59542;37.950;-122.338;2022-08-01T14:57:39;6.68;;;3.75;;
70008;SDS011;59542;37.950;-122.338;2022-08-01T15:00:07;6.82;;;3.50;;
70008;SDS011;59542;37.950;-122.338;2022-08-01T15:02:39;6.30;;;4.07;;
70008;SDS011;59542;37.950;-122.338;2022-08-01T15:05:06;5.63;;;3.85;;